sensor_id;sensor_type;location;lat;lon;timestamp;temperature;humidity
28761;DHT22;15917;50.014;8.352;2022-10-15T00:00:39;14.60;99.90
28761;DHT22;15917;50.014;8.352;2022-10-15T00:03:06;14.50;99.90
28761;DHT22;15917;50.014;8.352;2022-10-15T00:05:31;14.60;99.90
28761;DHT22;15917;50.014;8.352;2022-10-15T00:07:57;14.60;99.90
28761;DHT22;15917;50.014;8.352;2022-10-15T00:10:23;14.50;99.90
28761;DHT22;15917;50.014;8.352;2022-10-15T00:12:49;14.60;99.90
28761;DHT22;15917;50.014;8.352;2022-10-15T00:15:14;14.50;99.90
28761;DHT22;15917;50.014;8.352;2022-10-15T00:17:40;14.50;99.90
28761;DHT22;15917;50.014;8.352;2022-10-15T00:20:08;14.50;99.90
28761;DHT22;15917;50.014;8.352;2022-10-15T00:22:35;14.50;99.90
28761;DHT22;15917;50.014;8.352;2022-10-15T00:25:01;14.50;99.90
28761;DHT22;15917;50.014;8.352;2022-10-15T00:27:27;14.50;99.90
28761;DHT22;15917;50.014;8.352;2022-10-15T00:29:52;14.50;99.90
28761;DHT22;15917;50.014;8.352;2022-10-15T00:32:18;14.50;99.90
28761;DHT22;15917;50.014;8.352;2022-10-15T00:34:43;14.50;99.90
28761;DHT22;15917;50.014;8.352;2022-10-15T00:37:09;14.50;99.90
28761;DHT22;15917;50.014;8.352;2022-10-15T00:39:35;14.50;99.90
28761;DHT22;15917;50.014;8.352;2022-10-15T00:42:02;14.50;99.90
28761;DHT22;15917;50.014;8.352;2022-10-15T00:49:30;14.50;99.90
28761;DHT22;15917;50.014;8.352;2022-10-15T00:52:01;14.50;99.90
28761;DHT22;15917;50.014;8.352;2022-10-15T00:54:31;14.50;99.90
28761;DHT22;15917;50.014;8.352;2022-10-15T00:56:57;14.50;99.90
28761;DHT22;15917;50.014;8.352;2022-10-15T00:59:25;14.50;99.90
28761;DHT22;15917;50.014;8.352;2022-10-15T01:01:52;14.60;99.90
28761;DHT22;15917;50.014;8.352;2022-10-15T01:04:19;14.50;99.90
28761;DHT22;15917;50.014;8.352;2022-10-15T01:06:45;14.60;99.90
28761;DHT22;15917;50.014;8.352;2022-10-15T01:09:11;14.60;99.90
28761;DHT22;15917;50.014;8.352;2022-10-15T01:11:44;14.60;99.90
28761;DHT22;15917;50.014;8.352;2022-10-15T01:17:41;14.60;99.90
28761;DHT22;15917;50.014;8.352;2022-10-15T01:20:47;14.60;99.90
28761;DHT22;15917;50.014;8.352;2022-10-15T01:32:16;14.50;99.90
28761;DHT22;15917;50.014;8.352;2022-10-15T01:34:52;14.60;99.90
28761;DHT22;15917;50.014;8.352;2022-10-15T01:37:22;14.60;99.90
28761;DHT22;15917;50.014;8.352;2022-10-15T01:39:58;14.60;99.90
28761;DHT22;15917;50.014;8.352;2022-10-15T01:42:33;14.60;99.90
28761;DHT22;15917;50.014;8.352;2022-10-15T01:45:09;14.60;99.90
28761;DHT22;15917;50.014;8.352;2022-10-15T01:48:09;14.60;99.90
28761;DHT22;15917;50.014;8.352;2022-10-15T01:50:39;14.60;99.90
28761;DHT22;15917;50.014;8.352;2022-10-15T01:53:07;14.60;99.90
28761;DHT22;15917;50.014;8.352;2022-10-15T01:55:34;14.60;99.90
28761;DHT22;15917;50.014;8.352;2022-10-15T01:58:03;14.60;99.90
28761;DHT22;15917;50.014;8.352;2022-10-15T02:00:30;14.60;99.90
28761;DHT22;15917;50.014;8.352;2022-10-15T02:03:01;14.60;99.90
28761;DHT22;15917;50.014;8.352;2022-10-15T02:05:38;14.60;99.90
28761;DHT22;15917;50.014;8.352;2022-10-15T02:08:25;14.60;99.90
28761;DHT22;15917;50.014;8.352;2022-10-15T02:19:04;14.60;99.90
28761;DHT22;15917;50.014;8.352;2022-10-15T02:24:31;14.60;99.90
28761;DHT22;15917;50.014;8.352;2022-10-15T02:27:03;14.60;99.90
28761;DHT22;15917;50.014;8.352;2022-10-15T02:29:32;14.60;99.90
28761;DHT22;15917;50.014;8.352;2022-10-15T02:32:00;14.60;99.90
28761;DHT22;15917;50.014;8.352;2022-10-15T02:34:29;14.70;99.90
28761;DHT22;15917;50.014;8.352;2022-10-15T02:36:57;14.70;99.90
28761;DHT22;15917;50.014;8.352;2022-10-15T02:39:25;14.70;99.90
28761;DHT22;15917;50.014;8.352;2022-10-15T02:41:52;14.70;99.90
28761;DHT22;15917;50.014;8.352;2022-10-15T02:44:19;14.70;99.90
28761;DHT22;15917;50.014;8.352;2022-10-15T02:46:45;14.70;99.90
28761;DHT22;15917;50.014;8.352;2022-10-15T02:49:13;14.70;99.90
28761;DHT22;15917;50.014;8.352;2022-10-15T02:51:38;14.70;99.90
28761;DHT22;15917;50.014;8.352;2022-10-15T02:54:05;14.70;99.90
28761;DHT22;15917;50.014;8.352;2022-10-15T02:56:32;14.70;99.90
28761;DHT22;15917;50.014;8.352;2022-10-15T02:58:58;14.70;99.90
28761;DHT22;15917;50.014;8.352;2022-10-15T03:01:24;14.70;99.90
28761;DHT22;15917;50.014;8.352;2022-10-15T03:03:50;14.70;99.90
28761;DHT22;15917;50.014;8.352;2022-10-15T03:06:15;14.70;99.90
28761;DHT22;15917;50.014;8.352;2022-10-15T03:08:42;14.70;99.90
28761;DHT22;15917;50.014;8.352;2022-10-15T03:11:10;14.70;99.90
28761;DHT22;15917;50.014;8.352;2022-10-15T03:13:37;14.70;99.90
28761;DHT22;15917;50.014;8.352;2022-10-15T03:16:04;14.70;99.90
28761;DHT22;15917;50.014;8.352;2022-10-15T03:18:31;14.70;99.90
28761;DHT22;15917;50.014;8.352;2022-10-15T03:20:58;14.70;99.90
28761;DHT22;15917;50.014;8.352;2022-10-15T03:23:24;14.70;99.90
28761;DHT22;15917;50.014;8.352;2022-10-15T03:25:57;14.70;99.90
28761;DHT22;15917;50.014;8.352;2022-10-15T03:28:23;14.70;99.90
28761;DHT22;15917;50.014;8.352;2022-10-15T03:30:49;14.70;99.90
28761;DHT22;15917;50.014;8.352;2022-10-15T03:33:16;14.70;99.90
28761;DHT22;15917;50.014;8.352;2022-10-15T03:35:42;14.70;99.90
28761;DHT22;15917;50.014;8.352;2022-10-15T03:38:08;14.70;99.90
28761;DHT22;15917;50.014;8.352;2022-10-15T03:40:34;14.70;99.90
28761;DHT22;15917;50.014;8.352;2022-10-15T03:43:14;14.70;99.90
28761;DHT22;15917;50.014;8.352;2022-10-15T03:45:39;14.70;99.90
28761;DHT22;15917;50.014;8.352;2022-10-15T03:48:19;14.70;99.90
28761;DHT22;15917;50.014;8.352;2022-10-15T03:50:45;14.70;99.90
28761;DHT22;15917;50.014;8.352;2022-10-15T03:53:12;14.70;99.90
28761;DHT22;15917;50.014;8.352;2022-10-15T03:55:38;14.70;99.90
28761;DHT22;15917;50.014;8.352;2022-10-15T03:58:03;14.70;99.90
28761;DHT22;15917;50.014;8.352;2022-10-15T04:00:29;14.70;99.90
28761;DHT22;15917;50.014;8.352;2022-10-15T04:03:00;14.60;99.90
28761;DHT22;15917;50.014;8.352;2022-10-15T04:05:27;14.60;99.90
28761;DHT22;15917;50.014;8.352;2022-10-15T04:07:59;14.70;99.90
28761;DHT22;15917;50.014;8.352;2022-10-15T04:10:26;14.60;99.90
28761;DHT22;15917;50.014;8.352;2022-10-15T04:12:54;14.60;99.90
28761;DHT22;15917;50.014;8.352;2022-10-15T04:15:19;14.70;99.90
28761;DHT22;15917;50.014;8.352;2022-10-15T04:17:53;14.60;99.90
28761;DHT22;15917;50.014;8.352;2022-10-15T04:20:20;14.60;99.90
28761;DHT22;15917;50.014;8.352;2022-10-15T04:22:47;14.60;99.90
28761;DHT22;15917;50.014;8.352;2022-10-15T04:25:13;14.60;99.90
28761;DHT22;15917;50.014;8.352;2022-10-15T04:27:39;14.60;99.90
28761;DHT22;15917;50.014;8.352;2022-10-15T04:30:09;14.60;99.90
28761;DHT22;15917;50.014;8.352;2022-10-15T04:32:38;14.60;99.90
28761;DHT22;15917;50.014;8.352;2022-10-15T04:35:05;14.60;99.90
28761;DHT22;15917;50.014;8.352;2022-10-15T04:37:57;14.60;99.90
28761;DHT22;15917;50.014;8.352;2022-10-15T04:40:24;14.60;99.90
28761;DHT22;15917;50.014;8.352;2022-10-15T04:42:50;14.60;99.90
28761;DHT22;15917;50.014;8.352;2022-10-15T04:45:16;14.60;99.90
28761;DHT22;15917;50.014;8.352;2022-10-15T04:47:42;14.60;99.90
28761;DHT22;15917;50.014;8.352;2022-10-15T04:50:11;14.60;99.90
28761;DHT22;15917;50.014;8.352;2022-10-15T04:52:59;14.60;99.90
28761;DHT22;15917;50.014;8.352;2022-10-15T04:55:26;14.60;99.90
28761;DHT22;15917;50.014;8.352;2022-10-15T04:57:57;14.60;99.90
28761;DHT22;15917;50.014;8.352;2022-10-15T05:00:27;14.60;99.90
28761;DHT22;15917;50.014;8.352;2022-10-15T05:02:53;14.60;99.90
28761;DHT22;15917;50.014;8.352;2022-10-15T05:05:36;14.50;99.90
28761;DHT22;15917;50.014;8.352;2022-10-15T05:08:04;14.50;99.90
28761;DHT22;15917;50.014;8.352;2022-10-15T05:10:34;14.50;99.90
28761;DHT22;15917;50.014;8.352;2022-10-15T05:13:03;14.50;99.90
28761;DHT22;15917;50.014;8.352;2022-10-15T05:15:32;14.50;99.90
28761;DHT22;15917;50.014;8.352;2022-10-15T05:17:57;14.50;99.90
28761;DHT22;15917;50.014;8.352;2022-10-15T05:20:30;14.50;99.90
28761;DHT22;15917;50.014;8.352;2022-10-15T05:22:56;14.50;99.90
28761;DHT22;15917;50.014;8.352;2022-10-15T05:25:26;14.50;99.90
28761;DHT22;15917;50.014;8.352;2022-10-15T05:27:54;14.50;99.90
28761;DHT22;15917;50.014;8.352;2022-10-15T05:30:20;14.50;99.90
28761;DHT22;15917;50.014;8.352;2022-10-15T05:32:51;14.50;99.90
28761;DHT22;15917;50.014;8.352;2022-10-15T05:35:18;14.50;99.90
28761;DHT22;15917;50.014;8.352;2022-10-15T05:37:52;14.50;99.90
28761;DHT22;15917;50.014;8.352;2022-10-15T05:40:18;14.50;99.90
28761;DHT22;15917;50.014;8.352;2022-10-15T05:42:52;14.50;99.90
28761;DHT22;15917;50.014;8.352;2022-10-15T05:45:20;14.50;99.90
28761;DHT22;15917;50.014;8.352;2022-10-15T05:47:46;14.50;99.90
28761;DHT22;15917;50.014;8.352;2022-10-15T05:50:15;14.40;99.90
28761;DHT22;15917;50.014;8.352;2022-10-15T05:52:44;14.50;99.90
28761;DHT22;15917;50.014;8.352;2022-10-15T05:55:14;14.50;99.90
28761;DHT22;15917;50.014;8.352;2022-10-15T05:57:40;14.50;99.90
28761;DHT22;15917;50.014;8.352;2022-10-15T06:00:07;14.40;99.90
28761;DHT22;15917;50.014;8.352;2022-10-15T06:02:38;14.40;99.90
28761;DHT22;15917;50.014;8.352;2022-10-15T06:05:04;14.50;99.90
28761;DHT22;15917;50.014;8.352;2022-10-15T06:07:31;14.50;99.90
28761;DHT22;15917;50.014;8.352;2022-10-15T06:10:01;14.50;99.90
28761;DHT22;15917;50.014;8.352;2022-10-15T06:12:29;14.50;99.90
28761;DHT22;15917;50.014;8.352;2022-10-15T06:14:54;14.40;99.90
28761;DHT22;15917;50.014;8.352;2022-10-15T06:17:20;14.50;99.90
28761;DHT22;15917;50.014;8.352;2022-10-15T06:19:49;14.60;99.90
28761;DHT22;15917;50.014;8.352;2022-10-15T06:22:15;14.50;99.90
28761;DHT22;15917;50.014;8.352;2022-10-15T06:24:40;14.50;99.90
28761;DHT22;15917;50.014;8.352;2022-10-15T06:27:06;14.50;99.90
28761;DHT22;15917;50.014;8.352;2022-10-15T06:29:33;14.50;99.90
28761;DHT22;15917;50.014;8.352;2022-10-15T06:32:00;14.50;99.90
28761;DHT22;15917;50.014;8.352;2022-10-15T06:34:26;14.50;99.90
28761;DHT22;15917;50.014;8.352;2022-10-15T06:36:52;14.50;99.90
28761;DHT22;15917;50.014;8.352;2022-10-15T06:39:17;14.50;99.90
28761;DHT22;15917;50.014;8.352;2022-10-15T06:41:43;14.50;99.90
28761;DHT22;15917;50.014;8.352;2022-10-15T06:44:09;14.60;99.90
28761;DHT22;15917;50.014;8.352;2022-10-15T06:46:35;14.60;99.90
28761;DHT22;15917;50.014;8.352;2022-10-15T06:49:01;14.60;99.90
28761;DHT22;15917;50.014;8.352;2022-10-15T06:51:26;14.70;99.90
28761;DHT22;15917;50.014;8.352;2022-10-15T06:53:52;14.70;99.90
28761;DHT22;15917;50.014;8.352;2022-10-15T06:56:18;14.70;99.90
28761;DHT22;15917;50.014;8.352;2022-10-15T06:58:44;14.70;99.90
28761;DHT22;15917;50.014;8.352;2022-10-15T07:01:10;14.70;99.90
28761;DHT22;15917;50.014;8.352;2022-10-15T07:03:36;14.70;99.90
28761;DHT22;15917;50.014;8.352;2022-10-15T07:06:06;14.80;99.90
28761;DHT22;15917;50.014;8.352;2022-10-15T07:08:32;14.80;99.90
28761;DHT22;15917;50.014;8.352;2022-10-15T07:11:04;14.80;99.90
28761;DHT22;15917;50.014;8.352;2022-10-15T07:13:30;14.80;99.90
28761;DHT22;15917;50.014;8.352;2022-10-15T07:15:56;14.90;99.90
28761;DHT22;15917;50.014;8.352;2022-10-15T07:18:22;14.80;99.90
28761;DHT22;15917;50.014;8.352;2022-10-15T07:20:48;14.80;99.90
28761;DHT22;15917;50.014;8.352;2022-10-15T07:23:13;14.80;99.90
28761;DHT22;15917;50.014;8.352;2022-10-15T07:25:39;14.80;99.90
28761;DHT22;15917;50.014;8.352;2022-10-15T07:28:05;14.80;99.90
28761;DHT22;15917;50.014;8.352;2022-10-15T07:30:31;14.80;99.90
28761;DHT22;15917;50.014;8.352;2022-10-15T07:32:58;14.80;99.90
28761;DHT22;15917;50.014;8.352;2022-10-15T07:35:25;14.80;99.90
28761;DHT22;15917;50.014;8.352;2022-10-15T07:37:51;14.80;99.90
28761;DHT22;15917;50.014;8.352;2022-10-15T07:40:17;14.80;99.90
28761;DHT22;15917;50.014;8.352;2022-10-15T07:42:43;14.80;99.90
28761;DHT22;15917;50.014;8.352;2022-10-15T07:45:09;14.80;99.90
28761;DHT22;15917;50.014;8.352;2022-10-15T07:47:35;14.80;99.90
28761;DHT22;15917;50.014;8.352;2022-10-15T07:50:01;14.80;99.90
28761;DHT22;15917;50.014;8.352;2022-10-15T07:52:27;14.80;99.90
28761;DHT22;15917;50.014;8.352;2022-10-15T07:54:52;14.90;99.90
28761;DHT22;15917;50.014;8.352;2022-10-15T07:57:18;14.90;99.90
28761;DHT22;15917;50.014;8.352;2022-10-15T07:59:44;15.00;99.90
28761;DHT22;15917;50.014;8.352;2022-10-15T08:02:16;15.00;99.90
28761;DHT22;15917;50.014;8.352;2022-10-15T08:04:42;15.10;99.90
28761;DHT22;15917;50.014;8.352;2022-10-15T08:07:07;15.00;99.90
28761;DHT22;15917;50.014;8.352;2022-10-15T08:09:33;15.00;99.90
28761;DHT22;15917;50.014;8.352;2022-10-15T08:11:59;15.00;99.90
28761;DHT22;15917;50.014;8.352;2022-10-15T08:14:24;15.00;99.90
28761;DHT22;15917;50.014;8.352;2022-10-15T08:16:50;15.10;99.90
28761;DHT22;15917;50.014;8.352;2022-10-15T08:19:16;15.10;99.90
28761;DHT22;15917;50.014;8.352;2022-10-15T08:21:45;15.10;99.90
28761;DHT22;15917;50.014;8.352;2022-10-15T08:24:11;15.20;99.90
28761;DHT22;15917;50.014;8.352;2022-10-15T08:26:36;15.20;99.90
28761;DHT22;15917;50.014;8.352;2022-10-15T08:29:02;15.30;99.90
28761;DHT22;15917;50.014;8.352;2022-10-15T08:31:28;15.30;99.90
28761;DHT22;15917;50.014;8.352;2022-10-15T08:33:54;15.30;99.90
28761;DHT22;15917;50.014;8.352;2022-10-15T08:36:19;15.30;99.90
28761;DHT22;15917;50.014;8.352;2022-10-15T08:38:46;15.30;99.90
28761;DHT22;15917;50.014;8.352;2022-10-15T08:43:45;15.30;99.90
28761;DHT22;15917;50.014;8.352;2022-10-15T08:46:19;15.40;99.90
28761;DHT22;15917;50.014;8.352;2022-10-15T08:48:50;15.40;99.90
28761;DHT22;15917;50.014;8.352;2022-10-15T08:51:20;15.50;99.90
28761;DHT22;15917;50.014;8.352;2022-10-15T08:53:50;15.40;99.90
28761;DHT22;15917;50.014;8.352;2022-10-15T08:56:42;15.40;99.90
28761;DHT22;15917;50.014;8.352;2022-10-15T08:59:36;15.50;99.90
28761;DHT22;15917;50.014;8.352;2022-10-15T09:02:21;15.60;99.90
28761;DHT22;15917;50.014;8.352;2022-10-15T09:07:42;15.70;99.90
28761;DHT22;15917;50.014;8.352;2022-10-15T09:13:34;15.80;99.90
28761;DHT22;15917;50.014;8.352;2022-10-15T09:16:09;15.90;99.90
28761;DHT22;15917;50.014;8.352;2022-10-15T09:18:37;15.90;99.90
28761;DHT22;15917;50.014;8.352;2022-10-15T09:21:06;16.00;99.90
28761;DHT22;15917;50.014;8.352;2022-10-15T09:23:34;16.10;99.90
28761;DHT22;15917;50.014;8.352;2022-10-15T09:26:11;16.20;99.90
28761;DHT22;15917;50.014;8.352;2022-10-15T09:29:10;16.20;99.90
28761;DHT22;15917;50.014;8.352;2022-10-15T09:31:51;16.20;99.90
28761;DHT22;15917;50.014;8.352;2022-10-15T09:34:37;16.30;99.90
28761;DHT22;15917;50.014;8.352;2022-10-15T09:37:12;16.40;99.90
28761;DHT22;15917;50.014;8.352;2022-10-15T09:40:15;16.50;99.90
28761;DHT22;15917;50.014;8.352;2022-10-15T09:42:49;16.60;99.90
28761;DHT22;15917;50.014;8.352;2022-10-15T09:45:21;16.60;99.90
28761;DHT22;15917;50.014;8.352;2022-10-15T09:47:48;16.70;99.90
28761;DHT22;15917;50.014;8.352;2022-10-15T09:50:14;16.70;99.90
28761;DHT22;15917;50.014;8.352;2022-10-15T09:53:03;16.90;99.90
28761;DHT22;15917;50.014;8.352;2022-10-15T09:58:13;17.00;99.90
28761;DHT22;15917;50.014;8.352;2022-10-15T10:01:00;17.10;99.90
28761;DHT22;15917;50.014;8.352;2022-10-15T10:03:35;17.10;99.90
28761;DHT22;15917;50.014;8.352;2022-10-15T10:06:05;17.10;99.90
28761;DHT22;15917;50.014;8.352;2022-10-15T10:11:17;17.10;99.90
28761;DHT22;15917;50.014;8.352;2022-10-15T10:16:18;17.10;99.90
28761;DHT22;15917;50.014;8.352;2022-10-15T10:19:04;17.00;99.90
28761;DHT22;15917;50.014;8.352;2022-10-15T10:21:33;16.90;99.90
28761;DHT22;15917;50.014;8.352;2022-10-15T10:26:48;16.90;99.90
28761;DHT22;15917;50.014;8.352;2022-10-15T10:29:21;16.90;99.90
28761;DHT22;15917;50.014;8.352;2022-10-15T10:31:49;16.80;99.90
28761;DHT22;15917;50.014;8.352;2022-10-15T10:34:29;16.90;99.90
28761;DHT22;15917;50.014;8.352;2022-10-15T10:37:01;16.90;99.90
28761;DHT22;15917;50.014;8.352;2022-10-15T10:39:32;16.80;99.90
28761;DHT22;15917;50.014;8.352;2022-10-15T10:44:42;16.80;99.90
28761;DHT22;15917;50.014;8.352;2022-10-15T10:47:16;16.80;99.90
28761;DHT22;15917;50.014;8.352;2022-10-15T10:49:45;16.80;99.90
28761;DHT22;15917;50.014;8.352;2022-10-15T10:52:46;16.80;99.90
28761;DHT22;15917;50.014;8.352;2022-10-15T10:55:19;16.80;99.90
28761;DHT22;15917;50.014;8.352;2022-10-15T10:57:58;16.90;99.90
28761;DHT22;15917;50.014;8.352;2022-10-15T11:00:39;16.90;99.90
28761;DHT22;15917;50.014;8.352;2022-10-15T11:03:08;17.10;99.90
28761;DHT22;15917;50.014;8.352;2022-10-15T11:05:43;17.70;99.90
28761;DHT22;15917;50.014;8.352;2022-10-15T11:08:27;18.40;99.90
28761;DHT22;15917;50.014;8.352;2022-10-15T11:11:20;19.00;99.90
28761;DHT22;15917;50.014;8.352;2022-10-15T11:19:15;19.70;99.90
28761;DHT22;15917;50.014;8.352;2022-10-15T11:22:06;19.40;99.90
28761;DHT22;15917;50.014;8.352;2022-10-15T11:30:41;18.30;99.90
28761;DHT22;15917;50.014;8.352;2022-10-15T11:34:02;18.00;99.90
28761;DHT22;15917;50.014;8.352;2022-10-15T11:36:35;17.80;99.90
28761;DHT22;15917;50.014;8.352;2022-10-15T11:42:14;17.50;99.90
28761;DHT22;15917;50.014;8.352;2022-10-15T11:47:52;17.40;99.90
28761;DHT22;15917;50.014;8.352;2022-10-15T11:50:31;17.40;99.90
28761;DHT22;15917;50.014;8.352;2022-10-15T11:55:59;17.40;99.90
28761;DHT22;15917;50.014;8.352;2022-10-15T12:01:03;17.30;99.90
28761;DHT22;15917;50.014;8.352;2022-10-15T12:03:34;17.30;99.90
28761;DHT22;15917;50.014;8.352;2022-10-15T12:06:15;17.30;99.90
28761;DHT22;15917;50.014;8.352;2022-10-15T12:08:42;17.30;99.90
28761;DHT22;15917;50.014;8.352;2022-10-15T12:13:54;17.40;99.90
28761;DHT22;15917;50.014;8.352;2022-10-15T12:16:44;17.30;99.90
28761;DHT22;15917;50.014;8.352;2022-10-15T12:19:17;17.40;99.90
28761;DHT22;15917;50.014;8.352;2022-10-15T12:22:05;17.40;99.90
28761;DHT22;15917;50.014;8.352;2022-10-15T12:29:44;17.70;99.90
28761;DHT22;15917;50.014;8.352;2022-10-15T12:32:24;17.90;99.90
28761;DHT22;15917;50.014;8.352;2022-10-15T12:35:02;18.00;99.90
28761;DHT22;15917;50.014;8.352;2022-10-15T12:37:31;18.10;99.90
28761;DHT22;15917;50.014;8.352;2022-10-15T12:42:54;18.20;99.90
28761;DHT22;15917;50.014;8.352;2022-10-15T12:50:42;18.40;99.90
28761;DHT22;15917;50.014;8.352;2022-10-15T13:08:54;18.70;99.90
28761;DHT22;15917;50.014;8.352;2022-10-15T13:11:30;18.70;99.90
28761;DHT22;15917;50.014;8.352;2022-10-15T13:17:00;18.70;99.90
28761;DHT22;15917;50.014;8.352;2022-10-15T13:19:29;18.70;99.90
28761;DHT22;15917;50.014;8.352;2022-10-15T13:22:00;18.70;99.90
28761;DHT22;15917;50.014;8.352;2022-10-15T13:24:39;18.70;99.90
28761;DHT22;15917;50.014;8.352;2022-10-15T13:27:25;18.70;99.90
28761;DHT22;15917;50.014;8.352;2022-10-15T13:29:58;18.70;99.90
28761;DHT22;15917;50.014;8.352;2022-10-15T13:32:27;18.60;99.90
28761;DHT22;15917;50.014;8.352;2022-10-15T13:34:53;18.60;99.90
28761;DHT22;15917;50.014;8.352;2022-10-15T13:37:30;18.60;99.90
28761;DHT22;15917;50.014;8.352;2022-10-15T13:39:56;18.60;99.90
28761;DHT22;15917;50.014;8.352;2022-10-15T13:42:24;18.50;99.90
28761;DHT22;15917;50.014;8.352;2022-10-15T13:47:30;18.40;99.90
28761;DHT22;15917;50.014;8.352;2022-10-15T13:52:40;18.30;99.90
28761;DHT22;15917;50.014;8.352;2022-10-15T13:55:23;18.30;99.90
28761;DHT22;15917;50.014;8.352;2022-10-15T13:57:51;18.30;99.90
28761;DHT22;15917;50.014;8.352;2022-10-15T14:00:32;18.20;99.90
28761;DHT22;15917;50.014;8.352;2022-10-15T14:03:28;18.20;99.90
28761;DHT22;15917;50.014;8.352;2022-10-15T14:05:56;18.20;99.90
28761;DHT22;15917;50.014;8.352;2022-10-15T14:08:33;18.30;99.90
28761;DHT22;15917;50.014;8.352;2022-10-15T14:10:59;18.30;99.90
28761;DHT22;15917;50.014;8.352;2022-10-15T14:13:26;18.50;99.90
28761;DHT22;15917;50.014;8.352;2022-10-15T14:16:13;18.60;99.90
28761;DHT22;15917;50.014;8.352;2022-10-15T14:18:44;18.70;99.90
28761;DHT22;15917;50.014;8.352;2022-10-15T14:21:13;19.00;99.90
28761;DHT22;15917;50.014;8.352;2022-10-15T14:23:40;19.40;99.90
28761;DHT22;15917;50.014;8.352;2022-10-15T14:26:08;19.50;99.90
28761;DHT22;15917;50.014;8.352;2022-10-15T14:28:35;19.30;99.90
28761;DHT22;15917;50.014;8.352;2022-10-15T14:31:02;19.20;99.90
28761;DHT22;15917;50.014;8.352;2022-10-15T14:36:22;19.30;99.90
28761;DHT22;15917;50.014;8.352;2022-10-15T14:38:48;19.50;99.90
28761;DHT22;15917;50.014;8.352;2022-10-15T14:41:28;19.60;99.90
28761;DHT22;15917;50.014;8.352;2022-10-15T14:44:02;19.60;99.90
28761;DHT22;15917;50.014;8.352;2022-10-15T14:46:50;19.60;99.90
28761;DHT22;15917;50.014;8.352;2022-10-15T14:49:24;19.70;99.90
28761;DHT22;15917;50.014;8.352;2022-10-15T14:52:16;19.60;99.90
28761;DHT22;15917;50.014;8.352;2022-10-15T14:54:56;19.50;99.90
28761;DHT22;15917;50.014;8.352;2022-10-15T14:57:26;19.40;99.90
28761;DHT22;15917;50.014;8.352;2022-10-15T14:59:54;19.40;99.90
28761;DHT22;15917;50.014;8.352;2022-10-15T15:02:22;19.40;99.90
28761;DHT22;15917;50.014;8.352;2022-10-15T15:07:35;19.20;99.90
28761;DHT22;15917;50.014;8.352;2022-10-15T15:10:01;19.10;99.90
28761;DHT22;15917;50.014;8.352;2022-10-15T15:12:27;18.90;99.90
28761;DHT22;15917;50.014;8.352;2022-10-15T15:14:53;18.90;99.90
28761;DHT22;15917;50.014;8.352;2022-10-15T15:17:21;18.70;99.90
28761;DHT22;15917;50.014;8.352;2022-10-15T15:19:49;18.70;99.90
28761;DHT22;15917;50.014;8.352;2022-10-15T15:22:17;18.60;99.90
28761;DHT22;15917;50.014;8.352;2022-10-15T15:24:45;18.60;99.90
28761;DHT22;15917;50.014;8.352;2022-10-15T15:27:30;18.50;99.90
28761;DHT22;15917;50.014;8.352;2022-10-15T15:30:05;18.50;99.90
28761;DHT22;15917;50.014;8.352;2022-10-15T15:32:31;18.50;99.90
28761;DHT22;15917;50.014;8.352;2022-10-15T15:34:57;18.50;99.90
28761;DHT22;15917;50.014;8.352;2022-10-15T15:37:24;18.50;99.90
28761;DHT22;15917;50.014;8.352;2022-10-15T15:39:50;18.40;99.90
28761;DHT22;15917;50.014;8.352;2022-10-15T15:42:22;18.30;99.90
28761;DHT22;15917;50.014;8.352;2022-10-15T15:44:48;18.30;99.90
28761;DHT22;15917;50.014;8.352;2022-10-15T15:47:15;18.30;99.90
28761;DHT22;15917;50.014;8.352;2022-10-15T15:49:41;18.20;99.90
28761;DHT22;15917;50.014;8.352;2022-10-15T15:52:10;18.20;99.90
28761;DHT22;15917;50.014;8.352;2022-10-15T15:54:41;18.20;99.90
28761;DHT22;15917;50.014;8.352;2022-10-15T15:57:07;18.20;99.90
28761;DHT22;15917;50.014;8.352;2022-10-15T15:59:33;18.20;99.90
28761;DHT22;15917;50.014;8.352;2022-10-15T16:01:59;18.10;99.90
28761;DHT22;15917;50.014;8.352;2022-10-15T16:04:24;18.00;99.90
28761;DHT22;15917;50.014;8.352;2022-10-15T16:06:50;18.00;99.90
28761;DHT22;15917;50.014;8.352;2022-10-15T16:09:17;17.90;99.90
28761;DHT22;15917;50.014;8.352;2022-10-15T16:11:43;17.80;99.90
28761;DHT22;15917;50.014;8.352;2022-10-15T16:14:09;17.80;99.90
28761;DHT22;15917;50.014;8.352;2022-10-15T16:16:35;17.70;99.90
28761;DHT22;15917;50.014;8.352;2022-10-15T16:19:01;17.60;99.90
28761;DHT22;15917;50.014;8.352;2022-10-15T16:21:27;17.60;99.90
28761;DHT22;15917;50.014;8.352;2022-10-15T16:23:53;17.60;99.90
28761;DHT22;15917;50.014;8.352;2022-10-15T16:26:19;17.50;99.90
28761;DHT22;15917;50.014;8.352;2022-10-15T16:28:44;17.40;99.90
28761;DHT22;15917;50.014;8.352;2022-10-15T16:33:45;17.30;99.90
28761;DHT22;15917;50.014;8.352;2022-10-15T16:36:12;17.30;99.90
28761;DHT22;15917;50.014;8.352;2022-10-15T16:38:39;17.20;99.90
28761;DHT22;15917;50.014;8.352;2022-10-15T16:41:05;17.20;99.90
28761;DHT22;15917;50.014;8.352;2022-10-15T16:43:32;17.20;99.90
28761;DHT22;15917;50.014;8.352;2022-10-15T16:45:58;17.10;99.90
28761;DHT22;15917;50.014;8.352;2022-10-15T16:48:24;17.20;99.90
28761;DHT22;15917;50.014;8.352;2022-10-15T16:53:34;17.10;99.90
28761;DHT22;15917;50.014;8.352;2022-10-15T16:56:02;17.10;99.90
28761;DHT22;15917;50.014;8.352;2022-10-15T16:58:29;17.10;99.90
28761;DHT22;15917;50.014;8.352;2022-10-15T17:01:03;17.10;99.90
28761;DHT22;15917;50.014;8.352;2022-10-15T17:03:32;17.00;99.90
28761;DHT22;15917;50.014;8.352;2022-10-15T17:05:59;17.10;99.90
28761;DHT22;15917;50.014;8.352;2022-10-15T17:08:36;17.00;99.90
28761;DHT22;15917;50.014;8.352;2022-10-15T17:11:08;17.00;99.90
28761;DHT22;15917;50.014;8.352;2022-10-15T17:13:34;17.00;99.90
28761;DHT22;15917;50.014;8.352;2022-10-15T17:16:21;17.00;99.90
28761;DHT22;15917;50.014;8.352;2022-10-15T17:18:48;17.00;99.90
28761;DHT22;15917;50.014;8.352;2022-10-15T17:21:17;17.00;99.90
28761;DHT22;15917;50.014;8.352;2022-10-15T17:23:43;17.00;99.90
28761;DHT22;15917;50.014;8.352;2022-10-15T17:26:11;17.00;99.90
28761;DHT22;15917;50.014;8.352;2022-10-15T17:28:38;17.00;99.90
28761;DHT22;15917;50.014;8.352;2022-10-15T17:31:10;17.10;99.90
28761;DHT22;15917;50.014;8.352;2022-10-15T17:33:36;17.10;99.90
28761;DHT22;15917;50.014;8.352;2022-10-15T17:36:14;17.20;99.90
28761;DHT22;15917;50.014;8.352;2022-10-15T17:38:40;17.20;99.90
28761;DHT22;15917;50.014;8.352;2022-10-15T17:41:17;17.20;99.90
28761;DHT22;15917;50.014;8.352;2022-10-15T17:43:44;17.20;99.90
28761;DHT22;15917;50.014;8.352;2022-10-15T17:46:16;17.20;99.90
28761;DHT22;15917;50.014;8.352;2022-10-15T17:48:43;17.20;99.90
28761;DHT22;15917;50.014;8.352;2022-10-15T17:51:11;17.10;99.90
28761;DHT22;15917;50.014;8.352;2022-10-15T17:53:38;17.00;99.90